sensor_id;sensor_type;location;lat;lon;timestamp;temperature;humidity
2447;DHT22;26430;48.818;9.244;2024-02-16T00:01:45;14.00;99.90
2447;DHT22;26430;48.818;9.244;2024-02-16T00:04:11;14.10;99.90
2447;DHT22;26430;48.818;9.244;2024-02-16T00:06:36;14.10;99.90
2447;DHT22;26430;48.818;9.244;2024-02-16T00:09:02;14.10;99.90
2447;DHT22;26430;48.818;9.244;2024-02-16T00:11:27;14.00;99.90
2447;DHT22;26430;48.818;9.244;2024-02-16T00:13:54;14.10;99.90
2447;DHT22;26430;48.818;9.244;2024-02-16T00:16:19;14.00;99.90
2447;DHT22;26430;48.818;9.244;2024-02-16T00:18:45;14.10;99.90
2447;DHT22;26430;48.818;9.244;2024-02-16T00:21:10;14.10;99.90
2447;DHT22;26430;48.818;9.244;2024-02-16T00:23:36;14.00;99.90
2447;DHT22;26430;48.818;9.244;2024-02-16T00:26:02;14.10;99.90
2447;DHT22;26430;48.818;9.244;2024-02-16T00:28:32;13.90;99.90
2447;DHT22;26430;48.818;9.244;2024-02-16T00:30:57;13.90;99.90
2447;DHT22;26430;48.818;9.244;2024-02-16T00:33:23;13.80;99.90
2447;DHT22;26430;48.818;9.244;2024-02-16T00:35:48;13.90;99.90
2447;DHT22;26430;48.818;9.244;2024-02-16T00:38:15;13.90;99.90
2447;DHT22;26430;48.818;9.244;2024-02-16T00:40:40;13.90;99.90
2447;DHT22;26430;48.818;9.244;2024-02-16T00:43:09;13.90;99.90
2447;DHT22;26430;48.818;9.244;2024-02-16T00:45:35;14.00;99.90
2447;DHT22;26430;48.818;9.244;2024-02-16T00:48:00;14.00;99.90
2447;DHT22;26430;48.818;9.244;2024-02-16T00:50:27;14.00;99.90
2447;DHT22;26430;48.818;9.244;2024-02-16T00:52:53;14.00;99.90
2447;DHT22;26430;48.818;9.244;2024-02-16T00:55:19;14.00;99.90
2447;DHT22;26430;48.818;9.244;2024-02-16T00:57:44;14.00;99.90
2447;DHT22;26430;48.818;9.244;2024-02-16T01:00:10;14.00;99.90
2447;DHT22;26430;48.818;9.244;2024-02-16T01:02:36;14.00;99.90
2447;DHT22;26430;48.818;9.244;2024-02-16T01:05:02;14.00;99.90
2447;DHT22;26430;48.818;9.244;2024-02-16T01:07:28;14.00;99.90
2447;DHT22;26430;48.818;9.244;2024-02-16T01:09:53;14.00;99.90
2447;DHT22;26430;48.818;9.244;2024-02-16T01:12:20;14.00;99.90
2447;DHT22;26430;48.818;9.244;2024-02-16T01:14:45;14.00;99.90
2447;DHT22;26430;48.818;9.244;2024-02-16T01:17:11;14.00;99.90
2447;DHT22;26430;48.818;9.244;2024-02-16T01:19:36;14.00;99.90
2447;DHT22;26430;48.818;9.244;2024-02-16T01:22:02;13.90;99.90
2447;DHT22;26430;48.818;9.244;2024-02-16T01:24:28;13.90;99.90
2447;DHT22;26430;48.818;9.244;2024-02-16T01:26:54;13.90;99.90
2447;DHT22;26430;48.818;9.244;2024-02-16T01:29:19;13.90;99.90
2447;DHT22;26430;48.818;9.244;2024-02-16T01:31:45;14.00;99.90
2447;DHT22;26430;48.818;9.244;2024-02-16T01:34:11;14.00;99.90
2447;DHT22;26430;48.818;9.244;2024-02-16T01:36:36;14.00;99.90
2447;DHT22;26430;48.818;9.244;2024-02-16T01:39:02;13.90;99.90
2447;DHT22;26430;48.818;9.244;2024-02-16T01:41:27;13.90;99.90
2447;DHT22;26430;48.818;9.244;2024-02-16T01:43:53;13.90;99.90
2447;DHT22;26430;48.818;9.244;2024-02-16T01:46:20;13.90;99.90
2447;DHT22;26430;48.818;9.244;2024-02-16T01:48:46;13.90;99.90
2447;DHT22;26430;48.818;9.244;2024-02-16T01:51:12;13.90;99.90
2447;DHT22;26430;48.818;9.244;2024-02-16T01:53:39;13.90;99.90
2447;DHT22;26430;48.818;9.244;2024-02-16T01:56:06;14.00;99.90
2447;DHT22;26430;48.818;9.244;2024-02-16T01:58:31;14.00;99.90
2447;DHT22;26430;48.818;9.244;2024-02-16T02:00:58;13.90;99.90
2447;DHT22;26430;48.818;9.244;2024-02-16T02:03:23;13.90;99.90
2447;DHT22;26430;48.818;9.244;2024-02-16T02:05:49;13.90;99.90
2447;DHT22;26430;48.818;9.244;2024-02-16T02:08:16;13.90;99.90
2447;DHT22;26430;48.818;9.244;2024-02-16T02:10:42;13.80;99.90
2447;DHT22;26430;48.818;9.244;2024-02-16T02:13:08;13.90;99.90
2447;DHT22;26430;48.818;9.244;2024-02-16T02:15:33;13.90;99.90
2447;DHT22;26430;48.818;9.244;2024-02-16T02:18:00;13.90;99.90
2447;DHT22;26430;48.818;9.244;2024-02-16T02:20:25;13.80;99.90
2447;DHT22;26430;48.818;9.244;2024-02-16T02:22:51;13.90;99.90
2447;DHT22;26430;48.818;9.244;2024-02-16T02:25:17;13.90;99.90
2447;DHT22;26430;48.818;9.244;2024-02-16T02:27:42;13.90;99.90
2447;DHT22;26430;48.818;9.244;2024-02-16T02:30:08;13.90;99.90
2447;DHT22;26430;48.818;9.244;2024-02-16T02:32:34;13.90;99.90
2447;DHT22;26430;48.818;9.244;2024-02-16T02:34:59;13.90;99.90
2447;DHT22;26430;48.818;9.244;2024-02-16T02:37:25;13.90;99.90
2447;DHT22;26430;48.818;9.244;2024-02-16T02:39:52;13.90;99.90
2447;DHT22;26430;48.818;9.244;2024-02-16T02:42:17;13.90;99.90
2447;DHT22;26430;48.818;9.244;2024-02-16T02:44:43;13.90;99.90
2447;DHT22;26430;48.818;9.244;2024-02-16T02:47:18;13.90;99.90
2447;DHT22;26430;48.818;9.244;2024-02-16T02:49:44;13.90;99.90
2447;DHT22;26430;48.818;9.244;2024-02-16T02:52:10;13.90;99.90
2447;DHT22;26430;48.818;9.244;2024-02-16T02:54:35;13.80;99.90
2447;DHT22;26430;48.818;9.244;2024-02-16T02:57:02;13.90;99.90
2447;DHT22;26430;48.818;9.244;2024-02-16T02:59:28;13.80;99.90
2447;DHT22;26430;48.818;9.244;2024-02-16T03:01:53;13.80;99.90
2447;DHT22;26430;48.818;9.244;2024-02-16T03:04:19;13.80;99.90
2447;DHT22;26430;48.818;9.244;2024-02-16T03:06:44;13.90;99.90
2447;DHT22;26430;48.818;9.244;2024-02-16T03:09:11;13.90;99.90
2447;DHT22;26430;48.818;9.244;2024-02-16T03:11:38;13.90;99.90
2447;DHT22;26430;48.818;9.244;2024-02-16T03:14:03;13.80;99.90
2447;DHT22;26430;48.818;9.244;2024-02-16T03:16:30;13.80;99.90
2447;DHT22;26430;48.818;9.244;2024-02-16T03:18:57;13.80;99.90
2447;DHT22;26430;48.818;9.244;2024-02-16T03:21:23;13.80;99.90
2447;DHT22;26430;48.818;9.244;2024-02-16T03:23:48;13.80;99.90
2447;DHT22;26430;48.818;9.244;2024-02-16T03:26:18;13.80;99.90
2447;DHT22;26430;48.818;9.244;2024-02-16T03:28:45;13.90;99.90
2447;DHT22;26430;48.818;9.244;2024-02-16T03:31:21;13.90;99.90
2447;DHT22;26430;48.818;9.244;2024-02-16T03:33:48;13.80;99.90
2447;DHT22;26430;48.818;9.244;2024-02-16T03:36:14;13.80;99.90
2447;DHT22;26430;48.818;9.244;2024-02-16T03:38:47;13.80;99.90
2447;DHT22;26430;48.818;9.244;2024-02-16T03:41:19;13.80;99.90
2447;DHT22;26430;48.818;9.244;2024-02-16T03:43:44;13.70;99.90
2447;DHT22;26430;48.818;9.244;2024-02-16T03:46:10;13.70;99.90
2447;DHT22;26430;48.818;9.244;2024-02-16T03:48:36;13.80;99.90
2447;DHT22;26430;48.818;9.244;2024-02-16T03:51:02;13.70;99.90
2447;DHT22;26430;48.818;9.244;2024-02-16T03:53:30;13.70;99.90
2447;DHT22;26430;48.818;9.244;2024-02-16T03:55:56;13.70;99.90
2447;DHT22;26430;48.818;9.244;2024-02-16T03:58:22;13.70;99.90
2447;DHT22;26430;48.818;9.244;2024-02-16T04:00:48;13.70;99.90
2447;DHT22;26430;48.818;9.244;2024-02-16T04:03:18;13.80;99.90
2447;DHT22;26430;48.818;9.244;2024-02-16T04:05:44;13.70;99.90
2447;DHT22;26430;48.818;9.244;2024-02-16T04:08:10;13.60;99.90
2447;DHT22;26430;48.818;9.244;2024-02-16T04:10:35;13.60;99.90
2447;DHT22;26430;48.818;9.244;2024-02-16T04:13:01;13.60;99.90
2447;DHT22;26430;48.818;9.244;2024-02-16T04:15:27;13.60;99.90
2447;DHT22;26430;48.818;9.244;2024-02-16T04:17:53;13.60;99.90
2447;DHT22;26430;48.818;9.244;2024-02-16T04:20:19;13.60;99.90
2447;DHT22;26430;48.818;9.244;2024-02-16T04:22:45;13.60;99.90
2447;DHT22;26430;48.818;9.244;2024-02-16T04:25:11;13.70;99.90
2447;DHT22;26430;48.818;9.244;2024-02-16T04:27:36;13.60;99.90
2447;DHT22;26430;48.818;9.244;2024-02-16T04:30:03;13.60;99.90
2447;DHT22;26430;48.818;9.244;2024-02-16T04:32:29;13.60;99.90
2447;DHT22;26430;48.818;9.244;2024-02-16T04:34:55;13.60;99.90
2447;DHT22;26430;48.818;9.244;2024-02-16T04:37:27;13.60;99.90
2447;DHT22;26430;48.818;9.244;2024-02-16T04:39:52;13.60;99.90
2447;DHT22;26430;48.818;9.244;2024-02-16T04:42:18;13.70;99.90
2447;DHT22;26430;48.818;9.244;2024-02-16T04:44:44;13.70;99.90
2447;DHT22;26430;48.818;9.244;2024-02-16T04:47:09;13.80;99.90
2447;DHT22;26430;48.818;9.244;2024-02-16T04:49:35;13.80;99.90
2447;DHT22;26430;48.818;9.244;2024-02-16T04:52:02;13.90;99.90
2447;DHT22;26430;48.818;9.244;2024-02-16T04:54:27;13.90;99.90
2447;DHT22;26430;48.818;9.244;2024-02-16T04:56:53;13.90;99.90
2447;DHT22;26430;48.818;9.244;2024-02-16T04:59:19;13.90;99.90
2447;DHT22;26430;48.818;9.244;2024-02-16T05:01:44;14.00;99.90
2447;DHT22;26430;48.818;9.244;2024-02-16T05:04:10;14.00;99.90
2447;DHT22;26430;48.818;9.244;2024-02-16T05:06:40;14.00;99.90
2447;DHT22;26430;48.818;9.244;2024-02-16T05:09:06;14.00;99.90
2447;DHT22;26430;48.818;9.244;2024-02-16T05:11:32;13.90;99.90
2447;DHT22;26430;48.818;9.244;2024-02-16T05:13:58;13.90;99.90
2447;DHT22;26430;48.818;9.244;2024-02-16T05:16:23;13.90;99.90
2447;DHT22;26430;48.818;9.244;2024-02-16T05:18:49;13.90;99.90
2447;DHT22;26430;48.818;9.244;2024-02-16T05:21:16;14.00;99.90
2447;DHT22;26430;48.818;9.244;2024-02-16T05:23:42;14.10;99.90
2447;DHT22;26430;48.818;9.244;2024-02-16T05:26:07;14.10;99.90
2447;DHT22;26430;48.818;9.244;2024-02-16T05:28:33;14.10;99.90
2447;DHT22;26430;48.818;9.244;2024-02-16T05:31:12;14.10;99.90
2447;DHT22;26430;48.818;9.244;2024-02-16T05:33:38;14.00;99.90
2447;DHT22;26430;48.818;9.244;2024-02-16T05:36:04;14.00;99.90
2447;DHT22;26430;48.818;9.244;2024-02-16T05:38:29;14.00;99.90
2447;DHT22;26430;48.818;9.244;2024-02-16T05:41:00;14.00;99.90
2447;DHT22;26430;48.818;9.244;2024-02-16T05:43:26;14.00;99.90
2447;DHT22;26430;48.818;9.244;2024-02-16T05:45:53;14.00;99.90
2447;DHT22;26430;48.818;9.244;2024-02-16T05:48:18;14.10;99.90
2447;DHT22;26430;48.818;9.244;2024-02-16T05:50:44;14.10;99.90
2447;DHT22;26430;48.818;9.244;2024-02-16T05:53:10;14.20;99.90
2447;DHT22;26430;48.818;9.244;2024-02-16T05:55:36;14.20;99.90
2447;DHT22;26430;48.818;9.244;2024-02-16T05:58:02;14.20;99.90
2447;DHT22;26430;48.818;9.244;2024-02-16T06:00:34;14.30;99.90
2447;DHT22;26430;48.818;9.244;2024-02-16T06:03:00;14.30;99.90
2447;DHT22;26430;48.818;9.244;2024-02-16T06:05:26;14.30;99.90
2447;DHT22;26430;48.818;9.244;2024-02-16T06:07:51;14.30;99.90
2447;DHT22;26430;48.818;9.244;2024-02-16T06:10:17;14.30;99.90
2447;DHT22;26430;48.818;9.244;2024-02-16T06:12:43;14.30;99.90
2447;DHT22;26430;48.818;9.244;2024-02-16T06:15:09;14.20;99.90
2447;DHT22;26430;48.818;9.244;2024-02-16T06:17:35;14.20;99.90
2447;DHT22;26430;48.818;9.244;2024-02-16T06:20:02;14.20;99.90
2447;DHT22;26430;48.818;9.244;2024-02-16T06:22:29;14.10;99.90
2447;DHT22;26430;48.818;9.244;2024-02-16T06:24:57;14.10;99.90
2447;DHT22;26430;48.818;9.244;2024-02-16T06:27:22;14.10;99.90
2447;DHT22;26430;48.818;9.244;2024-02-16T06:29:49;14.20;99.90
2447;DHT22;26430;48.818;9.244;2024-02-16T06:32:15;14.10;99.90
2447;DHT22;26430;48.818;9.244;2024-02-16T06:34:42;14.10;99.90
2447;DHT22;26430;48.818;9.244;2024-02-16T06:37:08;14.10;99.90
2447;DHT22;26430;48.818;9.244;2024-02-16T06:39:34;14.00;99.90
2447;DHT22;26430;48.818;9.244;2024-02-16T06:41:59;14.00;99.90
2447;DHT22;26430;48.818;9.244;2024-02-16T06:44:25;14.00;99.90
2447;DHT22;26430;48.818;9.244;2024-02-16T06:46:51;14.00;99.90
2447;DHT22;26430;48.818;9.244;2024-02-16T06:49:17;14.00;99.90
2447;DHT22;26430;48.818;9.244;2024-02-16T06:51:42;14.00;99.90
2447;DHT22;26430;48.818;9.244;2024-02-16T06:54:10;13.90;99.90
2447;DHT22;26430;48.818;9.244;2024-02-16T06:56:37;13.90;99.90
2447;DHT22;26430;48.818;9.244;2024-02-16T06:59:03;13.90;99.90
2447;DHT22;26430;48.818;9.244;2024-02-16T07:01:29;13.90;99.90
2447;DHT22;26430;48.818;9.244;2024-02-16T07:03:54;14.00;99.90
2447;DHT22;26430;48.818;9.244;2024-02-16T07:06:20;14.00;99.90
2447;DHT22;26430;48.818;9.244;2024-02-16T07:08:46;13.90;99.90
2447;DHT22;26430;48.818;9.244;2024-02-16T07:11:12;13.90;99.90
2447;DHT22;26430;48.818;9.244;2024-02-16T07:13:39;13.90;99.90
2447;DHT22;26430;48.818;9.244;2024-02-16T07:16:05;13.90;99.90
2447;DHT22;26430;48.818;9.244;2024-02-16T07:18:35;14.00;99.90
2447;DHT22;26430;48.818;9.244;2024-02-16T07:21:01;14.00;99.90
2447;DHT22;26430;48.818;9.244;2024-02-16T07:23:27;14.00;99.90
2447;DHT22;26430;48.818;9.244;2024-02-16T07:25:53;14.00;99.90
2447;DHT22;26430;48.818;9.244;2024-02-16T07:28:23;14.00;99.90
2447;DHT22;26430;48.818;9.244;2024-02-16T07:30:50;14.10;99.90
2447;DHT22;26430;48.818;9.244;2024-02-16T07:33:15;14.10;99.90
2447;DHT22;26430;48.818;9.244;2024-02-16T07:35:41;14.10;99.90
2447;DHT22;26430;48.818;9.244;2024-02-16T07:38:06;14.10;99.90
2447;DHT22;26430;48.818;9.244;2024-02-16T07:40:32;14.20;99.90
2447;DHT22;26430;48.818;9.244;2024-02-16T07:42:58;14.10;99.90
2447;DHT22;26430;48.818;9.244;2024-02-16T07:45:23;14.10;99.90
2447;DHT22;26430;48.818;9.244;2024-02-16T07:47:50;14.10;99.90
2447;DHT22;26430;48.818;9.244;2024-02-16T07:50:20;14.10;99.90
2447;DHT22;26430;48.818;9.244;2024-02-16T07:52:46;14.10;99.90
2447;DHT22;26430;48.818;9.244;2024-02-16T07:55:11;14.10;99.90
2447;DHT22;26430;48.818;9.244;2024-02-16T07:57:37;14.10;99.90
2447;DHT22;26430;48.818;9.244;2024-02-16T08:00:04;14.10;99.90
2447;DHT22;26430;48.818;9.244;2024-02-16T08:02:30;14.00;99.90
2447;DHT22;26430;48.818;9.244;2024-02-16T08:04:55;14.00;99.90
2447;DHT22;26430;48.818;9.244;2024-02-16T08:07:21;13.90;99.90
2447;DHT22;26430;48.818;9.244;2024-02-16T08:09:47;13.90;99.90
2447;DHT22;26430;48.818;9.244;2024-02-16T08:12:13;13.90;99.90
2447;DHT22;26430;48.818;9.244;2024-02-16T08:14:39;13.90;99.90
2447;DHT22;26430;48.818;9.244;2024-02-16T08:17:09;13.90;99.90
2447;DHT22;26430;48.818;9.244;2024-02-16T08:19:36;13.90;99.90
2447;DHT22;26430;48.818;9.244;2024-02-16T08:22:06;13.90;99.90
2447;DHT22;26430;48.818;9.244;2024-02-16T08:24:35;13.90;99.90
2447;DHT22;26430;48.818;9.244;2024-02-16T08:27:01;13.90;99.90
2447;DHT22;26430;48.818;9.244;2024-02-16T08:29:27;13.90;99.90
2447;DHT22;26430;48.818;9.244;2024-02-16T08:31:54;13.80;99.90
2447;DHT22;26430;48.818;9.244;2024-02-16T08:34:20;13.90;99.90
2447;DHT22;26430;48.818;9.244;2024-02-16T08:36:46;13.90;99.90
2447;DHT22;26430;48.818;9.244;2024-02-16T08:39:12;13.90;99.90
2447;DHT22;26430;48.818;9.244;2024-02-16T08:41:38;14.00;99.90
2447;DHT22;26430;48.818;9.244;2024-02-16T08:44:04;14.00;99.90
2447;DHT22;26430;48.818;9.244;2024-02-16T08:46:30;14.10;99.90
2447;DHT22;26430;48.818;9.244;2024-02-16T08:48:55;14.10;99.90
2447;DHT22;26430;48.818;9.244;2024-02-16T08:51:21;14.20;99.90
2447;DHT22;26430;48.818;9.244;2024-02-16T08:53:47;14.30;99.90
2447;DHT22;26430;48.818;9.244;2024-02-16T08:56:12;14.30;99.90
2447;DHT22;26430;48.818;9.244;2024-02-16T08:58:38;14.40;99.90
2447;DHT22;26430;48.818;9.244;2024-02-16T09:01:04;14.40;99.90
2447;DHT22;26430;48.818;9.244;2024-02-16T09:03:30;14.50;99.90
2447;DHT22;26430;48.818;9.244;2024-02-16T09:06:02;14.50;99.90
2447;DHT22;26430;48.818;9.244;2024-02-16T09:08:28;14.60;99.90
2447;DHT22;26430;48.818;9.244;2024-02-16T09:10:59;14.60;99.90
2447;DHT22;26430;48.818;9.244;2024-02-16T09:13:24;14.60;99.90
2447;DHT22;26430;48.818;9.244;2024-02-16T09:15:50;14.60;99.90
2447;DHT22;26430;48.818;9.244;2024-02-16T09:18:17;14.70;99.90
2447;DHT22;26430;48.818;9.244;2024-02-16T09:20:43;14.70;99.90
2447;DHT22;26430;48.818;9.244;2024-02-16T09:23:08;14.80;99.90
2447;DHT22;26430;48.818;9.244;2024-02-16T09:25:35;14.80;99.90
2447;DHT22;26430;48.818;9.244;2024-02-16T09:28:00;14.90;99.90
2447;DHT22;26430;48.818;9.244;2024-02-16T09:30:26;14.90;99.90
2447;DHT22;26430;48.818;9.244;2024-02-16T09:32:53;15.00;99.90
2447;DHT22;26430;48.818;9.244;2024-02-16T09:35:18;15.10;99.90
2447;DHT22;26430;48.818;9.244;2024-02-16T09:37:44;15.10;99.90
2447;DHT22;26430;48.818;9.244;2024-02-16T09:40:12;15.20;99.90
2447;DHT22;26430;48.818;9.244;2024-02-16T09:42:38;15.20;99.90
2447;DHT22;26430;48.818;9.244;2024-02-16T09:45:06;15.30;99.90
2447;DHT22;26430;48.818;9.244;2024-02-16T09:47:33;15.30;99.90
2447;DHT22;26430;48.818;9.244;2024-02-16T09:50:00;15.40;99.90
2447;DHT22;26430;48.818;9.244;2024-02-16T09:52:26;15.40;99.90
2447;DHT22;26430;48.818;9.244;2024-02-16T09:54:52;15.50;99.90
2447;DHT22;26430;48.818;9.244;2024-02-16T09:57:18;15.60;99.90
2447;DHT22;26430;48.818;9.244;2024-02-16T09:59:44;15.60;99.90
2447;DHT22;26430;48.818;9.244;2024-02-16T10:02:09;15.70;99.90
2447;DHT22;26430;48.818;9.244;2024-02-16T10:04:35;15.70;99.90
2447;DHT22;26430;48.818;9.244;2024-02-16T10:07:01;15.80;99.90
2447;DHT22;26430;48.818;9.244;2024-02-16T10:09:28;15.90;99.90
2447;DHT22;26430;48.818;9.244;2024-02-16T10:12:00;15.90;99.90
2447;DHT22;26430;48.818;9.244;2024-02-16T10:14:26;15.90;99.90
2447;DHT22;26430;48.818;9.244;2024-02-16T10:17:02;15.90;99.90
2447;DHT22;26430;48.818;9.244;2024-02-16T10:19:29;16.00;99.90
2447;DHT22;26430;48.818;9.244;2024-02-16T10:22:06;16.00;99.90
2447;DHT22;26430;48.818;9.244;2024-02-16T10:24:32;16.00;99.90
2447;DHT22;26430;48.818;9.244;2024-02-16T10:26:58;16.00;99.90
2447;DHT22;26430;48.818;9.244;2024-02-16T10:29:24;16.10;99.90
2447;DHT22;26430;48.818;9.244;2024-02-16T10:31:52;16.10;99.90
2447;DHT22;26430;48.818;9.244;2024-02-16T10:34:18;16.10;99.90
2447;DHT22;26430;48.818;9.244;2024-02-16T10:36:45;16.10;99.90
2447;DHT22;26430;48.818;9.244;2024-02-16T10:39:11;16.10;99.90
2447;DHT22;26430;48.818;9.244;2024-02-16T10:41:41;16.10;99.90
2447;DHT22;26430;48.818;9.244;2024-02-16T10:44:07;16.10;99.90
2447;DHT22;26430;48.818;9.244;2024-02-16T10:46:33;16.10;99.90
2447;DHT22;26430;48.818;9.244;2024-02-16T10:48:59;16.20;99.90
2447;DHT22;26430;48.818;9.244;2024-02-16T10:51:47;16.10;99.90
2447;DHT22;26430;48.818;9.244;2024-02-16T10:54:18;16.10;99.90
2447;DHT22;26430;48.818;9.244;2024-02-16T10:56:45;16.20;99.90
2447;DHT22;26430;48.818;9.244;2024-02-16T10:59:11;16.20;99.90
2447;DHT22;26430;48.818;9.244;2024-02-16T11:01:41;16.20;99.90
2447;DHT22;26430;48.818;9.244;2024-02-16T11:04:08;16.20;99.90
2447;DHT22;26430;48.818;9.244;2024-02-16T11:06:55;16.20;99.90
2447;DHT22;26430;48.818;9.244;2024-02-16T11:09:28;16.20;99.90
2447;DHT22;26430;48.818;9.244;2024-02-16T11:11:58;16.20;99.90
2447;DHT22;26430;48.818;9.244;2024-02-16T11:14:24;16.20;99.90
2447;DHT22;26430;48.818;9.244;2024-02-16T11:16:55;16.20;99.90
2447;DHT22;26430;48.818;9.244;2024-02-16T11:19:22;16.20;99.90
2447;DHT22;26430;48.818;9.244;2024-02-16T11:22:04;16.30;99.90
2447;DHT22;26430;48.818;9.244;2024-02-16T11:24:34;16.20;99.90
2447;DHT22;26430;48.818;9.244;2024-02-16T11:27:04;16.30;99.90
2447;DHT22;26430;48.818;9.244;2024-02-16T11:29:35;16.30;99.90
2447;DHT22;26430;48.818;9.244;2024-02-16T11:32:04;16.30;99.90
2447;DHT22;26430;48.818;9.244;2024-02-16T11:34:30;16.30;99.90
2447;DHT22;26430;48.818;9.244;2024-02-16T11:36:57;16.30;99.90
2447;DHT22;26430;48.818;9.244;2024-02-16T11:39:23;16.30;99.90
2447;DHT22;26430;48.818;9.244;2024-02-16T11:42:00;16.30;99.90
2447;DHT22;26430;48.818;9.244;2024-02-16T11:44:28;16.30;99.90
2447;DHT22;26430;48.818;9.244;2024-02-16T11:46:54;16.30;99.90
2447;DHT22;26430;48.818;9.244;2024-02-16T11:49:20;16.30;99.90
2447;DHT22;26430;48.818;9.244;2024-02-16T11:51:47;16.40;99.90
2447;DHT22;26430;48.818;9.244;2024-02-16T11:54:13;16.30;99.90
2447;DHT22;26430;48.818;9.244;2024-02-16T11:56:47;16.30;99.90
2447;DHT22;26430;48.818;9.244;2024-02-16T11:59:17;16.40;99.90
2447;DHT22;26430;48.818;9.244;2024-02-16T12:02:16;16.40;99.90
2447;DHT22;26430;48.818;9.244;2024-02-16T12:04:41;16.40;99.90
2447;DHT22;26430;48.818;9.244;2024-02-16T12:07:07;16.40;99.90
2447;DHT22;26430;48.818;9.244;2024-02-16T12:09:33;16.40;99.90
2447;DHT22;26430;48.818;9.244;2024-02-16T12:12:00;16.40;99.90
2447;DHT22;26430;48.818;9.244;2024-02-16T12:14:25;16.40;99.90
2447;DHT22;26430;48.818;9.244;2024-02-16T12:16:56;16.40;99.90
2447;DHT22;26430;48.818;9.244;2024-02-16T12:19:22;16.40;99.90
2447;DHT22;26430;48.818;9.244;2024-02-16T12:21:57;16.40;99.90
2447;DHT22;26430;48.818;9.244;2024-02-16T12:24:23;16.40;99.90
2447;DHT22;26430;48.818;9.244;2024-02-16T12:26:49;16.50;99.90
2447;DHT22;26430;48.818;9.244;2024-02-16T12:29:15;16.50;99.90
2447;DHT22;26430;48.818;9.244;2024-02-16T12:31:43;16.50;99.90
2447;DHT22;26430;48.818;9.244;2024-02-16T12:34:10;16.50;99.90
2447;DHT22;26430;48.818;9.244;2024-02-16T12:36:38;16.50;99.90
2447;DHT22;26430;48.818;9.244;2024-02-16T12:39:04;16.50;99.90
2447;DHT22;26430;48.818;9.244;2024-02-16T12:41:34;16.50;99.90
2447;DHT22;26430;48.818;9.244;2024-02-16T12:44:01;16.50;99.90
2447;DHT22;26430;48.818;9.244;2024-02-16T12:46:27;16.50;99.90
2447;DHT22;26430;48.818;9.244;2024-02-16T12:48:54;16.50;99.90
2447;DHT22;26430;48.818;9.244;2024-02-16T12:51:19;16.50;99.90
2447;DHT22;26430;48.818;9.244;2024-02-16T12:53:45;16.50;99.90
2447;DHT22;26430;48.818;9.244;2024-02-16T12:56:11;16.50;99.90
2447;DHT22;26430;48.818;9.244;2024-02-16T12:58:37;16.60;99.90
2447;DHT22;26430;48.818;9.244;2024-02-16T13:01:03;16.50;99.90
2447;DHT22;26430;48.818;9.244;2024-02-16T13:03:34;16.60;99.90
2447;DHT22;26430;48.818;9.244;2024-02-16T13:06:00;16.50;99.90
2447;DHT22;26430;48.818;9.244;2024-02-16T13:08:25;16.50;99.90
2447;DHT22;26430;48.818;9.244;2024-02-16T13:10:51;16.60;99.90
2447;DHT22;26430;48.818;9.244;2024-02-16T13:13:16;16.60;99.90
2447;DHT22;26430;48.818;9.244;2024-02-16T13:15:42;16.50;99.90
2447;DHT22;26430;48.818;9.244;2024-02-16T13:18:07;16.50;99.90
2447;DHT22;26430;48.818;9.244;2024-02-16T13:20:33;16.50;99.90
2447;DHT22;26430;48.818;9.244;2024-02-16T13:23:00;16.60;99.90
2447;DHT22;26430;48.818;9.244;2024-02-16T13:25:26;16.60;99.90
2447;DHT22;26430;48.818;9.244;2024-02-16T13:27:52;16.60;99.90
2447;DHT22;26430;48.818;9.244;2024-02-16T13:30:17;16.60;99.90
2447;DHT22;26430;48.818;9.244;2024-02-16T13:32:43;16.60;99.90
2447;DHT22;26430;48.818;9.244;2024-02-16T13:35:09;16.60;99.90
2447;DHT22;26430;48.818;9.244;2024-02-16T13:37:34;16.60;99.90
2447;DHT22;26430;48.818;9.244;2024-02-16T13:40:00;16.60;99.90
2447;DHT22;26430;48.818;9.244;2024-02-16T13:42:26;16.60;99.90
2447;DHT22;26430;48.818;9.244;2024-02-16T13:44:53;16.60;99.90
2447;DHT22;26430;48.818;9.244;2024-02-16T13:47:19;16.60;99.90
2447;DHT22;26430;48.818;9.244;2024-02-16T13:49:44;16.60;99.90
2447;DHT22;26430;48.818;9.244;2024-02-16T13:52:11;16.60;99.90
2447;DHT22;26430;48.818;9.244;2024-02-16T13:54:37;16.60;99.90
2447;DHT22;26430;48.818;9.244;2024-02-16T13:57:02;16.70;99.90
2447;DHT22;26430;48.818;9.244;2024-02-16T13:59:28;16.60;99.90
2447;DHT22;26430;48.818;9.244;2024-02-16T14:01:55;16.60;99.90
2447;DHT22;26430;48.818;9.244;2024-02-16T14:04:22;16.60;99.90
2447;DHT22;26430;48.818;9.244;2024-02-16T14:06:49;16.60;99.90
2447;DHT22;26430;48.818;9.244;2024-02-16T14:09:15;16.60;99.90
2447;DHT22;26430;48.818;9.244;2024-02-16T14:11:45;16.60;99.90
2447;DHT22;26430;48.818;9.244;2024-02-16T14:14:11;16.60;99.90
2447;DHT22;26430;48.818;9.244;2024-02-16T14:16:36;16.60;99.90
2447;DHT22;26430;48.818;9.244;2024-02-16T14:19:02;16.60;99.90
2447;DHT22;26430;48.818;9.244;2024-02-16T14:21:28;16.60;99.90
2447;DHT22;26430;48.818;9.244;2024-02-16T14:23:54;16.60;99.90
2447;DHT22;26430;48.818;9.244;2024-02-16T14:26:19;16.60;99.90
2447;DHT22;26430;48.818;9.244;2024-02-16T14:28:45;16.60;99.90
2447;DHT22;26430;48.818;9.244;2024-02-16T14:31:11;16.60;99.90
2447;DHT22;26430;48.818;9.244;2024-02-16T14:33:39;16.60;99.90
2447;DHT22;26430;48.818;9.244;2024-02-16T14:36:05;16.60;99.90
2447;DHT22;26430;48.818;9.244;2024-02-16T14:38:34;16.60;99.90
2447;DHT22;26430;48.818;9.244;2024-02-16T14:40:59;16.60;99.90
2447;DHT22;26430;48.818;9.244;2024-02-16T14:43:32;16.60;99.90
2447;DHT22;26430;48.818;9.244;2024-02-16T14:45:58;16.60;99.90
2447;DHT22;26430;48.818;9.244;2024-02-16T14:48:24;16.60;99.90
2447;DHT22;26430;48.818;9.244;2024-02-16T14:50:53;16.60;99.90
2447;DHT22;26430;48.818;9.244;2024-02-16T14:53:22;16.60;99.90
2447;DHT22;26430;48.818;9.244;2024-02-16T14:55:48;16.70;99.90
2447;DHT22;26430;48.818;9.244;2024-02-16T14:58:18;16.60;99.90
2447;DHT22;26430;48.818;9.244;2024-02-16T15:00:45;16.70;99.90
2447;DHT22;26430;48.818;9.244;2024-02-16T15:03:10;16.60;99.90
2447;DHT22;26430;48.818;9.244;2024-02-16T15:05:36;16.60;99.90
2447;DHT22;26430;48.818;9.244;2024-02-16T15:08:02;16.60;99.90
2447;DHT22;26430;48.818;9.244;2024-02-16T15:10:28;16.60;99.90
2447;DHT22;26430;48.818;9.244;2024-02-16T15:12:54;16.60;99.90
2447;DHT22;26430;48.818;9.244;2024-02-16T15:15:19;16.70;99.90
2447;DHT22;26430;48.818;9.244;2024-02-16T15:17:45;16.70;99.90
2447;DHT22;26430;48.818;9.244;2024-02-16T15:20:10;16.60;99.90
2447;DHT22;26430;48.818;9.244;2024-02-16T15:22:36;16.60;99.90
2447;DHT22;26430;48.818;9.244;2024-02-16T15:25:02;16.60;99.90
2447;DHT22;26430;48.818;9.244;2024-02-16T15:27:28;16.60;99.90
2447;DHT22;26430;48.818;9.244;2024-02-16T15:29:54;16.60;99.90
2447;DHT22;26430;48.818;9.244;2024-02-16T15:32:19;16.60;99.90
2447;DHT22;26430;48.818;9.244;2024-02-16T15:34:45;16.60;99.90
2447;DHT22;26430;48.818;9.244;2024-02-16T15:37:13;16.60;99.90
2447;DHT22;26430;48.818;9.244;2024-02-16T15:39:39;16.60;99.90
2447;DHT22;26430;48.818;9.244;2024-02-16T15:42:05;16.60;99.90